createdAt,value
2022-12-20T00:00:55.463Z,16.70
2022-12-20T00:01:57.886Z,16.70
2022-12-20T00:03:00.384Z,16.70
2022-12-20T00:04:07.900Z,16.70
2022-12-20T00:05:10.236Z,16.70
2022-12-20T00:06:13.237Z,16.80
2022-12-20T00:07:15.573Z,16.90
2022-12-20T00:08:17.891Z,16.80
2022-12-20T00:09:20.275Z,16.80
2022-12-20T00:10:22.545Z,16.80
2022-12-20T00:11:26.384Z,16.80
2022-12-20T00:12:28.704Z,16.80
2022-12-20T00:13:31.948Z,16.80
2022-12-20T00:14:34.257Z,16.70
2022-12-20T00:15:36.682Z,16.70
2022-12-20T00:16:39.068Z,16.80
2022-12-20T00:17:41.512Z,16.80
2022-12-20T00:18:44.952Z,16.80
2022-12-20T00:19:47.315Z,16.80
2022-12-20T00:20:57.430Z,16.80
2022-12-20T00:21:59.730Z,16.80
2022-12-20T00:23:02.721Z,16.80
2022-12-20T00:24:06.305Z,16.80
2022-12-20T00:25:08.848Z,16.70
2022-12-20T00:26:13.341Z,16.70
2022-12-20T00:27:15.631Z,16.70
2022-12-20T00:28:18.590Z,16.80
2022-12-20T00:29:21.091Z,16.80
2022-12-20T00:30:23.515Z,16.80
2022-12-20T00:31:27.899Z,16.70
2022-12-20T00:32:30.462Z,16.90
2022-12-20T00:33:37.222Z,16.80
2022-12-20T00:34:39.581Z,16.90
2022-12-20T00:35:44.734Z,16.90
2022-12-20T00:36:47.247Z,16.90
2022-12-20T00:37:49.539Z,16.90
2022-12-20T00:38:54.581Z,17.00
2022-12-20T00:39:57.498Z,17.00
2022-12-20T00:41:08.286Z,17.00
2022-12-20T00:42:12.123Z,17.00
2022-12-20T00:43:14.491Z,17.10
2022-12-20T00:44:17.014Z,17.10
2022-12-20T00:45:19.329Z,17.10
2022-12-20T00:46:23.363Z,17.10
2022-12-20T00:47:25.780Z,17.10
2022-12-20T00:48:29.290Z,17.10
2022-12-20T00:49:31.895Z,17.10
2022-12-20T00:50:34.331Z,17.00
2022-12-20T00:51:36.622Z,17.00
2022-12-20T00:52:38.984Z,17.00
2022-12-20T00:53:42.220Z,17.00
2022-12-20T00:54:44.497Z,17.10
2022-12-20T00:55:47.168Z,17.00
2022-12-20T00:56:49.543Z,17.00
2022-12-20T00:57:51.888Z,17.00
2022-12-20T00:58:54.433Z,17.10
2022-12-20T00:59:56.755Z,17.10
2022-12-20T01:00:59.264Z,17.00
2022-12-20T01:02:02.553Z,17.10
2022-12-20T01:03:06.327Z,17.10
2022-12-20T01:04:08.744Z,17.00
2022-12-20T01:05:11.099Z,17.10
2022-12-20T01:06:13.354Z,17.00
2022-12-20T01:07:16.456Z,17.10
2022-12-20T01:08:19.263Z,17.10
2022-12-20T01:09:21.535Z,17.00
2022-12-20T01:10:23.850Z,17.10
2022-12-20T01:11:32.063Z,17.10
2022-12-20T01:12:34.396Z,17.10
2022-12-20T01:13:40.439Z,17.10
2022-12-20T01:14:42.795Z,17.10
2022-12-20T01:15:45.850Z,17.10
2022-12-20T01:16:48.382Z,17.10
2022-12-20T01:17:51.457Z,17.20
2022-12-20T01:18:54.477Z,17.10
2022-12-20T01:19:57.320Z,17.10
2022-12-20T01:21:08.391Z,17.10
2022-12-20T01:22:10.999Z,17.10
2022-12-20T01:23:13.385Z,17.10
2022-12-20T01:24:17.914Z,17.10
2022-12-20T01:25:20.282Z,17.10
2022-12-20T01:26:25.665Z,17.10
2022-12-20T01:27:28.866Z,17.20
2022-12-20T01:28:32.396Z,17.10
2022-12-20T01:29:34.743Z,17.10
2022-12-20T01:30:40.765Z,17.10
2022-12-20T01:31:43.651Z,17.10
2022-12-20T01:32:46.051Z,17.10
2022-12-20T01:33:50.080Z,17.10
2022-12-20T01:34:54.160Z,17.10
2022-12-20T01:36:05.099Z,17.10
2022-12-20T01:37:07.605Z,17.10
2022-12-20T01:38:09.885Z,17.10
2022-12-20T01:39:15.352Z,17.10
2022-12-20T01:40:17.846Z,17.10
2022-12-20T01:41:22.175Z,17.10
2022-12-20T01:42:24.490Z,17.10
2022-12-20T01:43:52.272Z,17.10
2022-12-20T01:44:58.531Z,17.10
2022-12-20T01:46:01.538Z,17.10
2022-12-20T01:47:03.965Z,17.10
2022-12-20T01:48:07.333Z,17.10
2022-12-20T01:49:16.207Z,17.10
2022-12-20T01:50:19.019Z,17.20
2022-12-20T01:51:23.562Z,17.20
2022-12-20T01:52:34.453Z,17.20
2022-12-20T01:53:37.456Z,17.20
2022-12-20T01:55:00.609Z,16.60
2022-12-20T01:56:07.268Z,16.00
2022-12-20T01:57:19.636Z,16.10
2022-12-20T01:58:22.713Z,16.10
2022-12-20T01:59:26.150Z,16.00
2022-12-20T02:00:29.581Z,16.00
2022-12-20T02:01:32.186Z,16.00
2022-12-20T02:02:35.584Z,15.90
2022-12-20T02:03:38.076Z,16.00
2022-12-20T02:04:41.092Z,15.90
2022-12-20T02:05:45.963Z,15.90
2022-12-20T02:06:48.232Z,15.90
2022-12-20T02:07:53.997Z,15.90
2022-12-20T02:09:00.504Z,15.90
2022-12-20T02:10:05.911Z,15.90
2022-12-20T02:11:33.458Z,15.80
2022-12-20T02:12:46.412Z,15.30
2022-12-20T02:14:08.449Z,15.00
2022-12-20T02:15:25.527Z,14.70
2022-12-20T02:16:33.170Z,14.30
2022-12-20T02:18:21.211Z,14.00
2022-12-20T02:19:51.539Z,14.30
2022-12-20T02:21:14.729Z,14.50
2022-12-20T02:22:34.805Z,14.60
2022-12-20T02:23:57.817Z,14.70
2022-12-20T02:25:06.214Z,14.80
2022-12-20T02:26:24.690Z,14.80
2022-12-20T02:27:45.875Z,14.80
2022-12-20T02:28:57.617Z,14.80
2022-12-20T02:30:14.425Z,14.80
2022-12-20T02:31:20.839Z,14.80
2022-12-20T02:32:36.760Z,14.90
2022-12-20T02:33:43.571Z,14.80
2022-12-20T02:34:46.649Z,14.80
2022-12-20T02:35:48.990Z,14.80
2022-12-20T02:36:52.065Z,14.80
2022-12-20T02:37:58.517Z,14.90
2022-12-20T02:39:00.917Z,14.80
2022-12-20T02:40:05.214Z,14.80
2022-12-20T02:41:32.166Z,14.80
2022-12-20T02:42:34.947Z,14.80
2022-12-20T02:43:57.872Z,14.80
2022-12-20T02:45:17.678Z,14.80
2022-12-20T02:46:23.904Z,14.80
2022-12-20T02:47:49.427Z,14.80
2022-12-20T02:48:54.114Z,14.80
2022-12-20T02:49:57.229Z,14.90
2022-12-20T02:51:01.471Z,14.70
2022-12-20T02:52:05.326Z,14.80
2022-12-20T02:53:09.167Z,14.70
2022-12-20T02:54:14.902Z,14.70
2022-12-20T02:55:18.432Z,14.80
2022-12-20T02:56:30.541Z,15.30
2022-12-20T02:57:38.273Z,15.60
2022-12-20T02:58:52.469Z,15.90
2022-12-20T03:00:02.304Z,16.20
2022-12-20T03:01:14.243Z,16.40
2022-12-20T03:02:17.608Z,16.70
2022-12-20T03:03:24.400Z,16.80
2022-12-20T03:04:31.118Z,17.00
2022-12-20T03:05:38.413Z,17.20
2022-12-20T03:07:01.694Z,17.50
2022-12-20T03:08:04.251Z,17.70
2022-12-20T03:09:06.627Z,17.90
2022-12-20T03:10:11.613Z,18.00
2022-12-20T03:11:15.092Z,18.10
2022-12-20T03:12:17.543Z,18.20
2022-12-20T03:13:21.011Z,18.30
2022-12-20T03:14:30.588Z,18.40
2022-12-20T03:15:35.117Z,18.40
2022-12-20T03:16:38.911Z,18.50
2022-12-20T03:17:42.673Z,18.50
2022-12-20T03:18:46.041Z,18.50
2022-12-20T03:19:48.506Z,18.60
2022-12-20T03:20:50.903Z,18.60
2022-12-20T03:21:53.426Z,18.70
2022-12-20T03:22:55.808Z,18.70
2022-12-20T03:23:58.176Z,18.70
2022-12-20T03:25:01.180Z,18.70
2022-12-20T03:26:05.774Z,18.80
2022-12-20T03:27:13.237Z,18.80
2022-12-20T03:28:15.961Z,18.90
2022-12-20T03:29:18.670Z,18.90
2022-12-20T03:30:21.113Z,18.90
2022-12-20T03:31:23.505Z,19.00
2022-12-20T03:32:29.227Z,19.10
2022-12-20T03:33:31.710Z,19.10
2022-12-20T03:34:37.103Z,19.10
2022-12-20T03:35:39.899Z,19.10
2022-12-20T03:36:42.365Z,19.20
2022-12-20T03:37:44.975Z,19.20
2022-12-20T03:38:47.539Z,19.30
2022-12-20T03:39:49.958Z,19.30
2022-12-20T03:40:52.464Z,19.30
2022-12-20T03:41:57.306Z,19.40
2022-12-20T03:42:59.583Z,19.40
2022-12-20T03:44:02.462Z,19.40
2022-12-20T03:45:05.527Z,19.00
2022-12-20T03:46:08.866Z,17.90
2022-12-20T03:47:13.734Z,16.90
2022-12-20T03:48:16.135Z,16.20
2022-12-20T03:49:18.623Z,16.20
2022-12-20T03:50:24.909Z,16.70
2022-12-20T03:51:27.217Z,17.00
2022-12-20T03:52:29.736Z,17.20
2022-12-20T03:53:32.066Z,17.40
2022-12-20T03:54:34.580Z,17.70
2022-12-20T03:55:45.746Z,17.90
2022-12-20T03:56:48.988Z,18.10
2022-12-20T03:57:51.409Z,18.20
2022-12-20T03:59:04.305Z,18.30
2022-12-20T04:00:07.782Z,18.40
2022-12-20T04:01:28.410Z,18.50
2022-12-20T04:02:31.319Z,18.60
2022-12-20T04:03:33.824Z,18.70
2022-12-20T04:04:36.238Z,18.80
2022-12-20T04:05:38.609Z,18.80
2022-12-20T04:06:42.421Z,18.90
2022-12-20T04:07:45.299Z,19.00
2022-12-20T04:08:48.605Z,19.00
2022-12-20T04:09:58.278Z,19.10
2022-12-20T04:11:19.145Z,19.20
2022-12-20T04:12:40.215Z,19.20
2022-12-20T04:13:50.409Z,19.30
2022-12-20T04:14:52.826Z,19.40
2022-12-20T04:15:59.960Z,19.50
2022-12-20T04:17:05.585Z,19.50
2022-12-20T04:18:08.599Z,19.50
2022-12-20T04:19:12.253Z,19.50
2022-12-20T04:20:21.047Z,19.60
2022-12-20T04:21:32.846Z,19.60
2022-12-20T04:22:35.230Z,19.60
2022-12-20T04:23:41.995Z,19.70
2022-12-20T04:24:44.744Z,19.70
2022-12-20T04:26:09.047Z,19.70
2022-12-20T04:27:11.629Z,19.70
2022-12-20T04:28:14.879Z,19.80
2022-12-20T04:29:17.214Z,19.80
2022-12-20T04:30:21.032Z,19.80
2022-12-20T04:31:24.615Z,19.80
2022-12-20T04:32:28.509Z,19.80
2022-12-20T04:33:31.451Z,19.80
2022-12-20T04:34:34.450Z,19.80
2022-12-20T04:35:37.618Z,19.80
2022-12-20T04:36:40.160Z,19.80
2022-12-20T04:37:47.614Z,19.90
2022-12-20T04:38:50.558Z,19.90
2022-12-20T04:39:53.098Z,19.90
2022-12-20T04:40:59.181Z,19.90
2022-12-20T04:42:04.718Z,19.90
2022-12-20T04:43:07.035Z,19.90
2022-12-20T04:44:10.380Z,19.90
2022-12-20T04:45:13.606Z,19.90
2022-12-20T04:46:16.406Z,19.90
2022-12-20T04:47:19.162Z,19.90
2022-12-20T04:48:55.280Z,20.00
2022-12-20T04:49:44.624Z,20.00
2022-12-20T04:50:50.936Z,19.90
2022-12-20T04:51:53.359Z,20.00
2022-12-20T04:53:14.924Z,20.00
2022-12-20T04:54:17.922Z,20.00
2022-12-20T04:55:38.308Z,20.00
2022-12-20T04:56:40.639Z,20.00
2022-12-20T04:57:46.044Z,20.00
2022-12-20T04:58:50.328Z,20.00
2022-12-20T04:59:52.863Z,20.00
2022-12-20T05:00:55.438Z,19.90
2022-12-20T05:02:01.795Z,19.90
2022-12-20T05:03:27.410Z,19.90
2022-12-20T05:04:37.039Z,20.00
2022-12-20T05:05:40.163Z,20.00
2022-12-20T05:06:42.618Z,20.00
2022-12-20T05:07:45.587Z,20.00
2022-12-20T05:08:48.217Z,20.00
2022-12-20T05:09:50.653Z,20.00
2022-12-20T05:10:53.063Z,20.00
2022-12-20T05:11:56.671Z,19.70
2022-12-20T05:13:01.784Z,19.70
2022-12-20T05:14:13.345Z,19.60
2022-12-20T05:15:15.781Z,19.70
2022-12-20T05:16:18.949Z,19.70
2022-12-20T05:17:21.891Z,19.80
2022-12-20T05:18:26.053Z,19.80
2022-12-20T05:19:33.524Z,19.90
2022-12-20T05:20:36.252Z,19.90
2022-12-20T05:22:08.189Z,20.00
2022-12-20T05:23:32.094Z,20.00
2022-12-20T05:25:03.471Z,20.00
2022-12-20T05:26:18.991Z,20.00
2022-12-20T05:27:22.710Z,20.10
2022-12-20T05:28:25.652Z,20.10
2022-12-20T05:29:27.951Z,20.10
2022-12-20T05:30:31.695Z,20.10
2022-12-20T05:31:34.286Z,20.10
2022-12-20T05:32:37.531Z,20.20
2022-12-20T05:33:39.930Z,20.20
2022-12-20T05:34:43.837Z,19.80
2022-12-20T05:35:46.331Z,18.70
2022-12-20T05:36:50.562Z,18.30
2022-12-20T05:37:53.811Z,18.50
2022-12-20T05:39:03.576Z,18.80
2022-12-20T05:40:08.875Z,19.00
2022-12-20T05:41:11.586Z,19.20
2022-12-20T05:42:14.262Z,19.30
2022-12-20T05:43:17.510Z,19.40
2022-12-20T05:44:22.202Z,19.50
2022-12-20T05:45:27.255Z,19.60
2022-12-20T05:46:36.207Z,19.60
2022-12-20T05:47:43.541Z,19.70
2022-12-20T05:48:47.589Z,19.80
2022-12-20T05:49:50.047Z,19.90
2022-12-20T05:50:52.797Z,19.90
2022-12-20T05:52:05.948Z,20.00
2022-12-20T05:53:14.573Z,20.00
2022-12-20T05:54:22.203Z,20.10
2022-12-20T05:55:32.312Z,20.00
2022-12-20T05:56:35.099Z,20.10
2022-12-20T05:57:37.486Z,20.10
2022-12-20T05:58:40.494Z,20.20
2022-12-20T05:59:44.832Z,20.20
2022-12-20T06:00:52.807Z,20.20
2022-12-20T06:01:55.848Z,20.20
2022-12-20T06:02:59.737Z,20.20
2022-12-20T06:04:02.590Z,20.20
2022-12-20T06:05:05.849Z,20.20
2022-12-20T06:06:14.175Z,20.20
2022-12-20T06:07:19.487Z,20.20
2022-12-20T06:08:25.153Z,20.20
2022-12-20T06:09:30.059Z,20.20
2022-12-20T06:10:39.286Z,20.20
2022-12-20T06:11:42.519Z,20.20
2022-12-20T06:12:47.454Z,20.20
2022-12-20T06:13:50.652Z,20.10
2022-12-20T06:14:53.371Z,20.20
2022-12-20T06:15:55.917Z,20.20
2022-12-20T06:16:58.588Z,20.20
2022-12-20T06:18:00.918Z,20.10
2022-12-20T06:19:03.214Z,20.00
2022-12-20T06:20:06.383Z,20.00
2022-12-20T06:21:08.678Z,19.90
2022-12-20T06:22:11.293Z,19.90
2022-12-20T06:23:18.157Z,19.80
2022-12-20T06:24:30.064Z,19.90
2022-12-20T06:25:32.961Z,19.80
2022-12-20T06:26:38.364Z,19.70
2022-12-20T06:27:42.776Z,19.70
2022-12-20T06:28:57.015Z,19.80
2022-12-20T06:30:14.000Z,19.80
2022-12-20T06:31:29.200Z,19.90
2022-12-20T06:32:31.938Z,19.90
2022-12-20T06:33:34.510Z,20.00
2022-12-20T06:34:37.311Z,20.10
2022-12-20T06:35:40.431Z,20.10
2022-12-20T06:36:42.956Z,20.10
2022-12-20T06:37:51.666Z,20.10
2022-12-20T06:38:54.269Z,20.10
2022-12-20T06:39:56.711Z,20.20
2022-12-20T06:40:59.122Z,20.20
2022-12-20T06:42:01.459Z,20.30
2022-12-20T06:43:03.944Z,20.30
2022-12-20T06:44:06.595Z,20.30
2022-12-20T06:45:09.544Z,20.30
2022-12-20T06:46:12.136Z,20.30
2022-12-20T06:47:14.619Z,20.30
2022-12-20T06:48:17.020Z,20.30
2022-12-20T06:49:19.844Z,20.30
2022-12-20T06:50:23.604Z,20.40
2022-12-20T06:51:26.265Z,20.40
2022-12-20T06:52:29.862Z,20.40
2022-12-20T06:53:32.237Z,20.40
2022-12-20T06:54:35.467Z,20.50
2022-12-20T06:55:39.446Z,20.40
2022-12-20T06:56:41.975Z,20.40
2022-12-20T06:57:46.728Z,20.50
2022-12-20T06:58:51.051Z,20.40
2022-12-20T06:59:53.499Z,20.40
2022-12-20T07:00:55.921Z,20.40
2022-12-20T07:01:58.800Z,20.40
2022-12-20T07:03:01.643Z,20.40
2022-12-20T07:04:04.403Z,20.30
2022-12-20T07:05:07.079Z,20.30
2022-12-20T07:06:09.412Z,20.30
2022-12-20T07:07:13.438Z,20.30
2022-12-20T07:08:15.732Z,20.30
2022-12-20T07:09:18.290Z,20.20
2022-12-20T07:10:20.821Z,20.20
2022-12-20T07:11:23.192Z,20.10
2022-12-20T07:12:25.532Z,20.00
2022-12-20T07:13:28.158Z,20.00
2022-12-20T07:14:30.543Z,20.00
2022-12-20T07:15:32.957Z,19.90
2022-12-20T07:16:36.301Z,19.90
2022-12-20T07:17:39.309Z,19.90
2022-12-20T07:18:41.632Z,19.80
2022-12-20T07:19:50.291Z,19.80
2022-12-20T07:20:53.428Z,19.90
2022-12-20T07:21:56.167Z,19.90
2022-12-20T07:22:58.690Z,20.00
2022-12-20T07:24:01.386Z,20.00
2022-12-20T07:25:04.149Z,20.10
2022-12-20T07:26:06.533Z,20.20
2022-12-20T07:27:11.125Z,20.20
2022-12-20T07:28:13.362Z,20.20
2022-12-20T07:29:16.269Z,20.20
2022-12-20T07:30:20.267Z,20.20
2022-12-20T07:31:22.869Z,20.20
2022-12-20T07:32:25.484Z,20.30
2022-12-20T07:33:28.884Z,20.30
2022-12-20T07:34:31.253Z,20.20
2022-12-20T07:35:33.606Z,20.20
2022-12-20T07:36:36.124Z,20.30
2022-12-20T07:37:39.410Z,20.30
2022-12-20T07:38:42.408Z,20.30
2022-12-20T07:39:44.971Z,20.30
2022-12-20T07:40:47.430Z,20.30
2022-12-20T07:41:53.221Z,20.30
2022-12-20T07:42:58.049Z,20.30
2022-12-20T07:44:00.619Z,20.30
2022-12-20T07:45:02.941Z,20.30
2022-12-20T07:46:06.989Z,20.40
2022-12-20T07:47:10.023Z,20.40
2022-12-20T07:48:16.296Z,20.30
2022-12-20T07:49:23.700Z,20.30
2022-12-20T07:50:28.358Z,20.30
2022-12-20T07:51:40.587Z,20.30
2022-12-20T07:52:45.846Z,20.30
2022-12-20T07:53:54.495Z,20.40
2022-12-20T07:55:03.137Z,20.40
2022-12-20T07:56:08.039Z,20.40
2022-12-20T07:57:15.666Z,20.30
2022-12-20T07:58:19.138Z,20.10
2022-12-20T07:59:27.200Z,20.10
2022-12-20T08:00:29.947Z,20.20
2022-12-20T08:01:32.654Z,20.20
2022-12-20T08:02:44.314Z,20.20
2022-12-20T08:03:51.130Z,20.20
2022-12-20T08:04:55.367Z,20.20
2022-12-20T08:06:03.779Z,20.20
2022-12-20T08:07:08.030Z,20.20
2022-12-20T08:08:10.572Z,20.20
2022-12-20T08:09:14.400Z,20.30
2022-12-20T08:10:19.506Z,20.20
2022-12-20T08:11:23.585Z,20.20
2022-12-20T08:12:27.783Z,20.30
2022-12-20T08:13:31.500Z,20.30
2022-12-20T08:14:33.958Z,20.30
2022-12-20T08:15:36.767Z,20.30
2022-12-20T08:16:39.243Z,20.30
2022-12-20T08:17:41.672Z,20.30
2022-12-20T08:18:44.661Z,20.30
2022-12-20T08:19:47.588Z,20.30
2022-12-20T08:20:50.158Z,20.00
2022-12-20T08:21:52.653Z,19.90
2022-12-20T08:22:55.054Z,19.80
2022-12-20T08:23:57.473Z,19.80
2022-12-20T08:24:59.878Z,19.70
2022-12-20T08:26:02.528Z,19.70
2022-12-20T08:27:04.843Z,19.60
2022-12-20T08:28:07.567Z,19.60
2022-12-20T08:29:10.413Z,19.50
2022-12-20T08:30:13.572Z,19.50
2022-12-20T08:31:16.317Z,19.50
2022-12-20T08:32:18.715Z,19.50
2022-12-20T08:33:21.128Z,19.40
2022-12-20T08:34:23.489Z,19.40
2022-12-20T08:35:25.974Z,19.40
2022-12-20T08:36:28.307Z,19.40
2022-12-20T08:37:30.745Z,19.30
2022-12-20T08:38:34.187Z,19.50
2022-12-20T08:39:37.606Z,19.60
2022-12-20T08:40:39.959Z,19.60
2022-12-20T08:41:42.341Z,19.70
2022-12-20T08:42:44.902Z,19.80
2022-12-20T08:43:47.681Z,19.80
2022-12-20T08:44:50.174Z,19.90
2022-12-20T08:45:54.659Z,19.90
2022-12-20T08:46:57.013Z,20.00
2022-12-20T08:47:59.634Z,20.00
2022-12-20T08:49:02.004Z,20.00
2022-12-20T08:50:04.814Z,20.00
2022-12-20T08:51:09.893Z,20.10
2022-12-20T08:52:12.191Z,20.10
2022-12-20T08:53:14.577Z,20.10
2022-12-20T08:54:17.549Z,20.10
2022-12-20T08:55:23.378Z,20.10
2022-12-20T08:56:30.024Z,20.10
2022-12-20T08:57:32.627Z,20.20
2022-12-20T08:58:36.049Z,20.20
2022-12-20T08:59:38.372Z,20.20
2022-12-20T09:00:40.806Z,20.20
2022-12-20T09:01:43.319Z,20.20
2022-12-20T09:02:47.333Z,20.20
2022-12-20T09:03:49.944Z,20.20
2022-12-20T09:04:52.386Z,20.20
2022-12-20T09:05:55.411Z,20.20
2022-12-20T09:06:57.958Z,20.20
2022-12-20T09:08:00.334Z,20.20
2022-12-20T09:09:03.470Z,20.20
2022-12-20T09:10:06.727Z,20.20
2022-12-20T09:11:15.065Z,20.20
2022-12-20T09:12:17.492Z,20.20
2022-12-20T09:13:21.710Z,20.20
2022-12-20T09:14:24.591Z,20.20
2022-12-20T09:15:28.037Z,19.90
2022-12-20T09:16:32.545Z,19.80
2022-12-20T09:17:35.013Z,19.80
2022-12-20T09:18:37.378Z,19.70
2022-12-20T09:19:39.926Z,19.70
2022-12-20T09:20:44.867Z,19.70
2022-12-20T09:21:47.236Z,19.60
2022-12-20T09:22:49.789Z,19.60
2022-12-20T09:23:54.573Z,19.50
2022-12-20T09:24:57.206Z,19.60
2022-12-20T09:26:16.707Z,19.70
2022-12-20T09:27:19.100Z,19.70
2022-12-20T09:28:22.360Z,19.80
2022-12-20T09:29:29.540Z,19.80
2022-12-20T09:30:34.686Z,19.90
2022-12-20T09:31:37.444Z,19.90
2022-12-20T09:32:40.014Z,19.90
2022-12-20T09:33:42.987Z,20.00
2022-12-20T09:34:45.375Z,20.00
2022-12-20T09:35:48.022Z,20.00
2022-12-20T09:36:50.384Z,20.00
2022-12-20T09:37:52.887Z,20.00
2022-12-20T09:38:55.911Z,20.00
2022-12-20T09:39:58.722Z,20.10
2022-12-20T09:41:07.015Z,20.10
2022-12-20T09:42:09.810Z,20.10
2022-12-20T09:43:13.771Z,20.20
2022-12-20T09:44:35.978Z,20.20
2022-12-20T09:45:38.972Z,20.30
2022-12-20T09:46:42.587Z,20.30
2022-12-20T09:47:46.305Z,20.20
2022-12-20T09:48:49.091Z,20.20
2022-12-20T09:49:54.941Z,20.20
2022-12-20T09:50:57.272Z,20.20
2022-12-20T09:52:05.610Z,20.10
2022-12-20T09:53:30.856Z,20.20
2022-12-20T09:54:47.760Z,20.30
2022-12-20T09:55:56.393Z,20.40
2022-12-20T09:57:09.539Z,20.40
2022-12-20T09:58:44.546Z,20.40
2022-12-20T09:59:49.834Z,20.40
2022-12-20T10:00:54.616Z,20.20
2022-12-20T10:02:08.048Z,19.30
2022-12-20T10:03:25.333Z,18.90
2022-12-20T10:04:31.225Z,18.20
2022-12-20T10:05:50.017Z,17.90
2022-12-20T10:07:32.473Z,17.70
2022-12-20T10:08:40.506Z,18.30
2022-12-20T10:10:20.648Z,18.70
2022-12-20T10:11:50.250Z,19.00
2022-12-20T10:13:10.890Z,19.20
2022-12-20T10:14:53.688Z,19.30
2022-12-20T10:16:22.249Z,19.50
2022-12-20T10:17:43.251Z,19.70
2022-12-20T10:19:10.463Z,19.80
2022-12-20T10:20:50.343Z,19.80
2022-12-20T10:22:21.111Z,19.80
2022-12-20T10:23:33.616Z,19.90
2022-12-20T10:24:37.134Z,19.90
2022-12-20T10:25:41.619Z,19.90
2022-12-20T10:26:45.612Z,19.90
2022-12-20T10:27:49.748Z,20.00
2022-12-20T10:28:54.422Z,20.00
2022-12-20T10:29:57.273Z,20.10
2022-12-20T10:31:06.406Z,20.10
2022-12-20T10:32:18.659Z,20.00
2022-12-20T10:33:23.416Z,20.00
2022-12-20T10:34:27.848Z,19.90
2022-12-20T10:35:40.506Z,19.90
2022-12-20T10:36:42.859Z,20.00
2022-12-20T10:38:08.904Z,20.10
2022-12-20T10:39:11.895Z,20.10
2022-12-20T10:41:01.521Z,20.10
2022-12-20T10:41:53.312Z,20.10
2022-12-20T10:42:56.144Z,20.20
2022-12-20T10:44:04.357Z,20.20
2022-12-20T10:45:15.624Z,20.20
2022-12-20T10:46:18.124Z,20.20
2022-12-20T10:47:35.451Z,20.20
2022-12-20T10:48:40.981Z,20.20
2022-12-20T10:49:43.313Z,20.20
2022-12-20T10:50:56.393Z,20.20
2022-12-20T10:52:07.770Z,20.20
2022-12-20T10:53:10.027Z,20.30
2022-12-20T10:54:38.169Z,20.40
2022-12-20T10:55:42.203Z,20.40
2022-12-20T10:56:59.099Z,20.40
2022-12-20T10:58:12.608Z,20.40
2022-12-20T10:59:17.801Z,20.40
2022-12-20T11:00:30.946Z,20.20
2022-12-20T11:01:37.457Z,20.00
2022-12-20T11:02:42.769Z,19.80
2022-12-20T11:03:55.692Z,19.70
2022-12-20T11:05:13.101Z,19.60
2022-12-20T11:06:17.455Z,19.60
2022-12-20T11:07:26.795Z,19.50
2022-12-20T11:08:40.939Z,19.50
2022-12-20T11:09:55.301Z,19.40
2022-12-20T11:11:19.483Z,19.30
2022-12-20T11:12:21.922Z,19.30
2022-12-20T11:13:26.800Z,19.30
2022-12-20T11:14:38.408Z,19.30
2022-12-20T11:15:50.369Z,19.40
2022-12-20T11:16:55.168Z,19.50
2022-12-20T11:18:09.212Z,19.70
2022-12-20T11:19:35.046Z,19.80
2022-12-20T11:20:52.720Z,19.90
2022-12-20T11:22:41.568Z,19.90
2022-12-20T11:24:09.287Z,20.00
2022-12-20T11:25:11.669Z,20.00
2022-12-20T11:26:41.444Z,20.00
2022-12-20T11:28:08.020Z,20.10
2022-12-20T11:29:38.113Z,20.10
2022-12-20T11:31:04.512Z,20.10
2022-12-20T11:32:36.923Z,20.20
2022-12-20T11:34:14.494Z,20.20
2022-12-20T11:35:30.765Z,20.20
2022-12-20T11:37:07.161Z,20.20
2022-12-20T11:38:23.751Z,20.30
2022-12-20T11:39:37.413Z,20.30
2022-12-20T11:40:51.404Z,20.30
2022-12-20T11:42:11.543Z,20.30
2022-12-20T11:43:25.685Z,20.30
2022-12-20T11:45:03.745Z,20.20
2022-12-20T11:46:20.850Z,20.20
2022-12-20T11:47:40.616Z,20.10
2022-12-20T11:49:08.637Z,20.10
2022-12-20T11:50:29.608Z,20.10
2022-12-20T11:52:10.559Z,20.00
2022-12-20T11:53:31.909Z,20.00
2022-12-20T11:54:58.557Z,20.00
2022-12-20T11:56:08.779Z,20.00
2022-12-20T11:57:23.320Z,20.10
2022-12-20T11:58:46.190Z,20.10
2022-12-20T11:59:53.255Z,20.20
2022-12-20T12:01:01.950Z,20.20
2022-12-20T12:02:26.009Z,20.20
2022-12-20T12:03:35.928Z,20.20
2022-12-20T12:04:53.551Z,20.30
2022-12-20T12:06:19.753Z,20.30
2022-12-20T12:07:33.465Z,20.30
2022-12-20T12:08:39.154Z,20.30
2022-12-20T12:10:05.943Z,20.40
2022-12-20T12:11:39.857Z,20.40
2022-12-20T12:12:45.249Z,20.40
2022-12-20T12:13:48.892Z,20.40
2022-12-20T12:14:59.959Z,20.40
2022-12-20T12:16:20.359Z,20.40
2022-12-20T12:18:00.524Z,20.40
2022-12-20T12:19:03.924Z,20.40
2022-12-20T12:20:35.911Z,20.50
2022-12-20T12:21:44.427Z,20.50
2022-12-20T12:22:48.948Z,20.50
2022-12-20T12:23:59.587Z,20.50
2022-12-20T12:25:06.348Z,20.60
2022-12-20T12:26:35.983Z,20.50
2022-12-20T12:27:39.098Z,20.50
2022-12-20T12:28:41.662Z,20.60
2022-12-20T12:29:44.291Z,20.50
2022-12-20T12:31:00.304Z,20.60
2022-12-20T12:32:17.052Z,20.40
2022-12-20T12:33:38.105Z,20.30
2022-12-20T12:35:03.559Z,20.20
2022-12-20T12:36:30.669Z,20.10
2022-12-20T12:38:13.509Z,20.00
2022-12-20T12:39:42.383Z,20.10
2022-12-20T12:41:12.151Z,20.20
2022-12-20T12:42:30.349Z,20.20
2022-12-20T12:43:44.229Z,20.30
2022-12-20T12:44:59.613Z,20.30
2022-12-20T12:46:14.025Z,20.30
2022-12-20T12:47:23.535Z,20.30
2022-12-20T12:48:42.027Z,20.30
2022-12-20T12:49:50.206Z,20.40
2022-12-20T12:50:56.970Z,20.30
2022-12-20T12:52:02.884Z,20.40
2022-12-20T12:53:28.183Z,20.40
2022-12-20T12:54:38.280Z,20.40
2022-12-20T12:55:45.491Z,20.40
2022-12-20T12:56:49.231Z,20.40
2022-12-20T12:57:58.574Z,20.40
2022-12-20T12:59:06.764Z,20.40
2022-12-20T13:00:49.356Z,20.40
2022-12-20T13:01:52.154Z,20.40
2022-12-20T13:02:54.971Z,20.40
2022-12-20T13:04:00.486Z,20.40
2022-12-20T13:05:12.699Z,20.40
2022-12-20T13:06:25.147Z,20.40
2022-12-20T13:07:33.551Z,20.40
2022-12-20T13:09:09.410Z,20.40
2022-12-20T13:10:14.642Z,20.50
2022-12-20T13:11:31.440Z,20.50
2022-12-20T13:12:36.630Z,20.40
2022-12-20T13:13:39.035Z,20.50
2022-12-20T13:14:41.364Z,20.50
2022-12-20T13:15:43.976Z,20.50
2022-12-20T13:18:13.546Z,20.50
2022-12-20T13:19:25.018Z,20.50
2022-12-20T13:20:31.274Z,20.50
2022-12-20T13:21:37.157Z,20.40
2022-12-20T13:22:39.564Z,20.50
2022-12-20T13:23:42.061Z,20.40
2022-12-20T13:25:00.025Z,20.40
2022-12-20T13:26:42.327Z,20.40
2022-12-20T13:27:44.617Z,20.50
2022-12-20T13:28:47.486Z,20.50
2022-12-20T13:30:26.462Z,20.50
2022-12-20T13:31:33.645Z,20.50
2022-12-20T13:32:48.157Z,20.50
2022-12-20T13:33:54.111Z,20.50
2022-12-20T13:34:58.156Z,20.50
2022-12-20T13:36:11.490Z,20.50
2022-12-20T13:38:06.143Z,20.50
2022-12-20T13:39:21.223Z,20.50
2022-12-20T13:40:34.791Z,20.50
2022-12-20T13:41:46.867Z,20.50
2022-12-20T13:42:53.725Z,20.50
2022-12-20T13:44:00.100Z,20.50
2022-12-20T13:45:06.588Z,20.50
2022-12-20T13:46:11.782Z,20.50
2022-12-20T13:47:32.830Z,20.50
2022-12-20T13:48:37.941Z,20.60
2022-12-20T13:49:42.480Z,20.50
2022-12-20T13:50:52.775Z,20.50
2022-12-20T13:52:18.077Z,20.20
2022-12-20T13:53:23.833Z,19.50
2022-12-20T13:54:27.508Z,19.30
2022-12-20T13:55:34.962Z,19.10
2022-12-20T13:56:49.380Z,19.30
2022-12-20T13:57:52.628Z,19.40
2022-12-20T13:59:03.176Z,19.60
2022-12-20T14:00:13.778Z,19.70
2022-12-20T14:01:24.575Z,19.80
2022-12-20T14:02:33.032Z,19.90
2022-12-20T14:03:42.153Z,20.00
2022-12-20T14:04:49.922Z,20.00
2022-12-20T14:05:58.378Z,20.10
2022-12-20T14:07:02.283Z,20.20
2022-12-20T14:08:21.099Z,20.20
2022-12-20T14:09:37.739Z,20.30
2022-12-20T14:10:40.146Z,20.30
2022-12-20T14:11:48.549Z,20.40
2022-12-20T14:12:54.649Z,20.40
2022-12-20T14:13:56.969Z,20.50
2022-12-20T14:14:59.589Z,20.50
2022-12-20T14:16:15.802Z,20.50
2022-12-20T14:17:33.554Z,20.50
2022-12-20T14:18:35.973Z,20.60
2022-12-20T14:19:38.348Z,20.60
2022-12-20T14:20:40.808Z,20.60
2022-12-20T14:21:45.887Z,20.60
2022-12-20T14:22:57.916Z,20.60
2022-12-20T14:24:04.206Z,20.60
2022-12-20T14:25:07.843Z,20.60
2022-12-20T14:26:13.664Z,20.70
2022-12-20T14:27:16.008Z,20.70
2022-12-20T14:28:40.459Z,20.70
2022-12-20T14:29:45.489Z,20.70
2022-12-20T14:30:48.023Z,20.70
2022-12-20T14:31:51.017Z,20.70
2022-12-20T14:32:55.785Z,20.70
2022-12-20T14:34:13.402Z,20.70
2022-12-20T14:35:21.947Z,20.70